Time;durP1;ratioP1;P1;durP2;ratioP2;P2;SDS_P1;SDS_P2;PMS_P1;PMS_P2;Temp;Humidity;BMP_temperature;BMP_pressure;BME280_temperature;BME280_humidity;BME280_pressure;Samples;Min_cycle;Max_cycle;Signal;HPM_P1;HPM_P2
2021/04/13 00:01:21;;;;;;;9.00;6.73;;;;;;;2.03;71.90;102079.00;5049464;28;20206;-64
2021/04/13 00:03:52;;;;;;;7.87;6.37;;;;;;;2.00;72.15;102077.25;5053080;28;20225;-65
2021/04/13 00:06:23;;;;;;;9.83;6.83;;;;;;;1.99;71.70;102077.25;5044057;28;20198;-64
2021/04/13 00:08:55;;;;;;;8.50;7.03;;;;;;;1.97;72.37;102079.03;5047785;28;20225;-64
2021/04/13 00:11:21;;;;;;;8.13;6.27;;;;;;;1.96;72.53;102074.66;5043937;28;20202;-64
2021/04/13 00:13:50;;;;;;;10.37;7.20;;;;;;;1.93;72.23;102080.81;5052384;28;20252;-64
2021/04/13 00:16:20;;;;;;;10.00;8.47;;;;;;;1.92;72.65;102081.69;5053109;28;20214;-64
2021/04/13 00:18:50;;;;;;;11.73;7.50;;;;;;;1.91;73.01;102072.06;5054305;28;20461;-64
2021/04/13 00:21:19;;;;;;;11.43;7.80;;;;;;;1.90;72.61;102074.69;5053335;28;20642;-65
2021/04/13 00:23:45;;;;;;;10.67;8.53;;;;;;;1.88;72.82;102077.31;5053175;28;20237;-64
2021/04/13 00:26:20;;;;;;;10.63;8.40;;;;;;;1.87;72.98;102072.94;5052402;28;20632;-64
2021/04/13 00:28:48;;;;;;;10.30;7.73;;;;;;;1.85;72.90;102077.34;5053511;28;20224;-65
2021/04/13 00:31:20;;;;;;;12.33;8.50;;;;;;;1.84;73.33;102070.34;5051677;28;20221;-64
2021/04/13 00:33:47;;;;;;;10.67;8.37;;;;;;;1.82;73.14;102077.34;5053497;28;20222;-64
2021/04/13 00:36:16;;;;;;;11.37;8.47;;;;;;;1.80;73.60;102075.59;5052842;28;20206;-64
2021/04/13 00:38:43;;;;;;;11.23;8.37;;;;;;;1.78;73.29;102078.25;5044768;28;20655;-64
2021/04/13 00:41:17;;;;;;;12.33;8.10;;;;;;;1.76;73.48;102082.66;5038450;28;20545;-64
2021/04/13 00:43:48;;;;;;;13.43;8.30;;;;;;;1.74;73.64;102079.16;5044228;28;20238;-64
2021/04/13 00:46:20;;;;;;;12.53;8.40;;;;;;;1.72;73.53;102081.78;5047941;28;20337;-64
2021/04/13 00:48:47;;;;;;;11.27;8.30;;;;;;;1.71;73.85;102082.66;5053708;28;20226;-65
2021/04/13 00:51:22;;;;;;;16.40;8.30;;;;;;;1.70;73.79;102087.91;5051626;28;20210;-63
2021/04/13 00:53:50;;;;;;;10.40;7.90;;;;;;;1.68;73.84;102077.41;5052984;28;20228;-65
2021/04/13 00:56:19;;;;;;;10.13;7.73;;;;;;;1.67;74.17;102080.03;5053091;28;20263;-65
2021/04/13 00:58:48;;;;;;;10.83;8.07;;;;;;;1.65;74.22;102081.78;5052311;28;20719;-65
2021/04/13 01:01:19;;;;;;;12.07;8.47;;;;;;;1.63;74.38;102079.16;5052672;28;20315;-65
2021/04/13 01:03:48;;;;;;;15.63;8.50;;;;;;;1.61;74.34;102072.22;5052452;28;20702;-64
2021/04/13 01:06:27;;;;;;;9.77;8.17;;;;;;;1.59;74.61;102079.22;5052811;28;20583;-64
2021/04/13 01:09:18;;;;;;;11.27;8.03;;;;;;;1.56;74.33;102082.72;5051355;28;20229;-64
2021/04/13 01:11:47;;;;;;;12.30;8.13;;;;;;;1.54;74.43;102080.97;5044109;28;20656;-64
2021/04/13 01:14:14;;;;;;;13.40;8.90;;;;;;;1.50;74.61;102079.22;5052338;28;20237;-64
2021/04/13 01:16:43;;;;;;;11.83;9.27;;;;;;;1.48;74.54;102078.34;5053003;28;20205;-64
2021/04/13 01:19:16;;;;;;;9.43;7.70;;;;;;;1.45;74.77;102083.59;5051772;28;20604;-64
2021/04/13 01:21:54;;;;;;;12.90;8.93;;;;;;;1.42;74.75;102076.66;5051239;28;20258;-65
2021/04/13 01:24:24;;;;;;;11.30;8.93;;;;;;;1.39;75.03;102082.78;5052182;28;20232;-65
2021/04/13 01:26:52;;;;;;;10.03;7.37;;;;;;;1.36;74.96;102076.66;5045425;28;20205;-64
2021/04/13 01:29:22;;;;;;;11.67;9.03;;;;;;;1.34;75.11;102071.41;5049163;28;20590;-64
2021/04/13 01:31:52;;;;;;;11.13;8.70;;;;;;;1.32;75.26;102081.03;5044122;28;20706;-64
2021/04/13 01:34:25;;;;;;;12.50;9.23;;;;;;;1.31;75.43;102081.91;5051805;28;20260;-64
2021/04/13 01:37:14;;;;;;;11.27;8.20;;;;;;;1.30;75.13;102077.53;5044295;28;20213;-64
2021/04/13 01:39:47;;;;;;;9.53;7.50;;;;;;;1.30;75.78;102081.91;5052248;28;20198;-64
2021/04/13 01:42:14;;;;;;;9.23;7.93;;;;;;;1.27;75.83;102082.78;5052033;28;20236;-64
2021/04/13 01:44:43;;;;;;;11.93;7.90;;;;;;;1.27;75.62;102074.91;5043847;28;20225;-64
2021/04/13 01:47:12;;;;;;;13.07;8.10;;;;;;;1.28;75.74;102079.28;5051865;28;20205;-64
2021/04/13 01:49:41;;;;;;;10.13;7.83;;;;;;;1.27;75.71;102088.03;5052010;28;20291;-64
2021/04/13 01:52:11;;;;;;;10.60;8.80;;;;;;;1.27;75.81;102087.16;5051472;28;20198;-64
2021/04/13 01:54:39;;;;;;;13.27;8.60;;;;;;;1.26;76.13;102088.91;5051196;28;20229;-64
2021/04/13 01:57:17;;;;;;;11.43;7.87;;;;;;;1.25;76.18;102084.56;5051942;28;20218;-64
2021/04/13 01:59:50;;;;;;;10.00;7.70;;;;;;;1.25;76.12;102079.31;5044979;28;20206;-65
2021/04/13 02:02:24;;;;;;;10.30;7.73;;;;;;;1.24;76.09;102071.44;5051557;28;20220;-64
2021/04/13 02:04:55;;;;;;;12.17;7.73;;;;;;;1.23;76.10;102078.44;5052049;28;20236;-65
2021/04/13 02:07:41;;;;;;;10.30;8.03;;;;;;;1.22;76.44;102074.06;5051455;28;20293;-65
2021/04/13 02:10:19;;;;;;;12.47;7.70;;;;;;;1.21;76.25;102074.94;5046071;28;20706;-64
2021/04/13 02:12:49;;;;;;;8.53;6.57;;;;;;;1.21;76.39;102082.81;5051152;28;20219;-65
2021/04/13 02:15:24;;;;;;;11.53;7.33;;;;;;;1.19;76.68;102079.31;5051943;28;20233;-64
2021/04/13 02:17:54;;;;;;;11.27;7.57;;;;;;;1.19;76.60;102078.44;5050950;28;20216;-64
2021/04/13 02:20:27;;;;;;;11.50;7.20;;;;;;;1.18;76.82;102084.56;5049471;28;20206;-65
2021/04/13 02:22:54;;;;;;;9.87;7.20;;;;;;;1.17;76.30;102085.44;5050645;28;20202;-64
2021/04/13 02:25:25;;;;;;;10.23;7.17;;;;;;;1.16;76.49;102073.19;5105938;22;20232;-63
2021/04/13 02:27:52;;;;;;;11.50;7.80;;;;;;;1.15;76.88;102074.06;5084156;28;20287;-63
2021/04/13 02:30:29;;;;;;;9.43;7.23;;;;;;;1.14;76.54;102074.94;5090680;28;20299;-62
2021/04/13 02:32:55;;;;;;;10.23;7.53;;;;;;;1.14;76.73;102086.31;5075789;28;20208;-63
2021/04/13 02:35:24;;;;;;;9.30;7.23;;;;;;;1.14;76.91;102085.44;5082953;28;20224;-63
2021/04/13 02:37:52;;;;;;;9.73;7.40;;;;;;;1.13;76.79;102078.44;5081945;28;20583;-63
2021/04/13 02:40:24;;;;;;;8.70;6.47;;;;;;;1.14;76.79;102086.31;5084066;28;20201;-65
2021/04/13 02:42:53;;;;;;;9.43;7.27;;;;;;;1.13;77.10;102074.06;5082352;28;20212;-65
2021/04/13 02:45:32;;;;;;;11.83;7.77;;;;;;;1.13;76.95;102081.94;5078556;28;20217;-65
2021/04/13 02:48:04;;;;;;;11.50;7.47;;;;;;;1.13;76.71;102083.69;5082328;28;20211;-65
2021/04/13 02:50:33;;;;;;;9.13;6.97;;;;;;;1.13;77.01;102079.31;5082592;28;20295;-64
2021/04/13 02:53:02;;;;;;;9.50;6.47;;;;;;;1.12;77.02;102082.81;5085989;28;20212;-64
2021/04/13 02:55:34;;;;;;;11.87;7.83;;;;;;;1.10;77.04;102076.69;5080709;28;20224;-64
2021/04/13 02:58:03;;;;;;;10.50;7.33;;;;;;;1.10;77.19;102089.81;5083523;28;20208;-64
2021/04/13 03:00:34;;;;;;;9.83;7.07;;;;;;;1.09;76.97;102088.06;5090099;28;20199;-64
2021/04/13 03:03:09;;;;;;;11.70;7.63;;;;;;;1.08;77.21;102088.94;5090435;28;20352;-64
2021/04/13 03:05:38;;;;;;;10.53;7.13;;;;;;;1.08;77.04;102088.06;5090512;28;20223;-65
2021/04/13 03:08:07;;;;;;;10.57;7.70;;;;;;;1.06;77.14;102088.09;5086139;28;20200;-63
2021/04/13 03:10:38;;;;;;;9.77;7.83;;;;;;;1.03;77.32;102093.34;5088420;28;20281;-64
2021/04/13 03:13:08;;;;;;;10.80;7.33;;;;;;;1.02;77.29;102088.97;5090465;28;20231;-64
2021/04/13 03:15:37;;;;;;;12.07;7.90;;;;;;;1.01;77.38;102089.84;5090062;28;20220;-64
2021/04/13 03:18:08;;;;;;;14.00;9.00;;;;;;;0.99;77.40;102084.59;5089095;28;20211;-64
2021/04/13 03:20:41;;;;;;;10.30;7.20;;;;;;;0.97;77.37;102098.59;5088318;28;20200;-63
2021/04/13 03:23:08;;;;;;;9.13;6.97;;;;;;;0.97;77.28;102106.44;5084957;28;20265;-64
2021/04/13 03:25:41;;;;;;;11.97;7.50;;;;;;;0.94;77.48;102098.59;5089619;28;20235;-64
2021/04/13 03:28:10;;;;;;;14.63;7.67;;;;;;;0.94;77.65;102103.81;5089730;28;20689;-64
2021/04/13 03:30:40;;;;;;;10.53;7.73;;;;;;;0.92;77.80;102100.31;5088140;28;20237;-64
2021/04/13 03:33:09;;;;;;;10.80;7.17;;;;;;;0.91;77.69;102101.19;5090128;28;20208;-64
2021/04/13 03:35:35;;;;;;;12.70;7.53;;;;;;;0.92;77.82;102116.06;5089423;28;20250;-63
2021/04/13 03:38:04;;;;;;;12.90;7.50;;;;;;;0.89;77.79;102111.72;5090250;28;20211;-64
2021/04/13 03:40:34;;;;;;;13.80;7.80;;;;;;;0.90;77.83;102109.94;5087120;28;20212;-64
2021/04/13 03:43:07;;;;;;;10.00;8.07;;;;;;;0.90;77.74;102115.19;5089743;28;20227;-64
2021/04/13 03:45:35;;;;;;;10.50;6.53;;;;;;;0.91;77.60;102111.69;5091616;28;20231;-65
2021/04/13 03:48:05;;;;;;;11.97;7.17;;;;;;;0.93;78.12;102115.19;5090130;28;20246;-64
2021/04/13 03:50:32;;;;;;;8.97;6.73;;;;;;;0.95;78.11;102118.69;5087438;28;20206;-64
2021/04/13 03:53:04;;;;;;;12.20;7.80;;;;;;;0.96;78.39;102110.81;5090483;28;20215;-64
2021/04/13 03:55:33;;;;;;;14.70;7.80;;;;;;;0.99;78.37;102107.34;5090016;28;20585;-64
2021/04/13 04:00:54;;;;;;;10.80;6.80;;;;;;;1.03;78.36;102103.84;5100607;27;20520;-63
2021/04/13 04:03:20;;;;;;;9.30;7.33;;;;;;;1.05;78.16;102107.34;5101263;28;20205;-63
2021/04/13 04:05:49;;;;;;;11.90;8.07;;;;;;;1.08;78.39;102104.69;5100173;28;20249;-65
2021/04/13 04:08:27;;;;;;;13.73;8.73;;;;;;;1.10;78.48;102110.81;5114158;28;21167;-63
2021/04/13 04:10:54;;;;;;;14.87;8.20;;;;;;;1.13;78.30;102115.19;5108104;27;20289;-65
2021/04/13 04:13:26;;;;;;;9.23;6.40;;;;;;;1.14;78.49;102109.06;5095214;28;20235;-63
2021/04/13 04:16:05;;;;;;;10.97;7.93;;;;;;;1.16;78.44;102113.44;5091568;28;20196;-65
2021/04/13 04:18:35;;;;;;;11.17;7.90;;;;;;;1.15;78.46;102110.81;5096716;28;20252;-63
2021/04/13 04:21:14;;;;;;;10.53;7.70;;;;;;;1.16;78.40;102112.56;5097385;28;20210;-63
2021/04/13 04:23:42;;;;;;;10.07;7.20;;;;;;;1.15;78.32;102119.56;5099249;28;20292;-63
2021/04/13 04:26:08;;;;;;;10.70;7.83;;;;;;;1.15;78.26;102118.69;5099113;28;20205;-63
2021/04/13 04:28:36;;;;;;;10.03;7.60;;;;;;;1.14;78.39;102119.56;5095551;28;20214;-63
2021/04/13 04:31:36;;;;;;;9.80;7.13;;;;;;;1.13;78.38;102118.69;5098459;28;20207;-63
2021/04/13 04:34:54;;;;;;;9.80;7.40;;;;;;;1.12;78.36;102127.44;5078610;28;20725;-63
2021/04/13 04:37:26;;;;;;;12.43;7.97;;;;;;;1.12;78.34;102134.41;5101482;28;20208;-63
2021/04/13 04:40:42;;;;;;;10.77;7.53;;;;;;;1.11;78.45;102138.78;5097715;28;20224;-63
2021/04/13 04:43:13;;;;;;;9.70;7.33;;;;;;;1.10;78.36;102137.03;5032492;28;20198;-62
2021/04/13 04:45:53;;;;;;;9.23;7.73;;;;;;;1.11;78.16;102143.16;5026042;28;20261;-63
2021/04/13 04:48:29;;;;;;;12.40;7.73;;;;;;;1.11;78.42;102151.91;5077466;28;21663;-63
2021/04/13 04:50:58;;;;;;;9.53;7.13;;;;;;;1.12;78.51;102151.03;5092999;28;20745;-61
2021/04/13 04:53:27;;;;;;;12.27;8.37;;;;;;;1.14;78.69;102157.16;5092726;28;20219;-62
2021/04/13 04:55:55;;;;;;;10.80;7.60;;;;;;;1.17;78.47;102164.16;5094519;28;20200;-65
2021/04/13 04:58:22;;;;;;;11.13;8.00;;;;;;;1.20;78.69;102172.91;5087829;28;20216;-65
2021/04/13 05:00:49;;;;;;;10.97;7.47;;;;;;;1.22;78.69;102165.91;5094839;28;20672;-63
2021/04/13 05:03:15;;;;;;;14.10;9.47;;;;;;;1.25;78.93;102168.56;5091432;28;20204;-64
2021/04/13 05:05:42;;;;;;;14.03;8.20;;;;;;;1.28;78.87;102167.63;5092467;28;20258;-64
2021/04/13 05:08:08;;;;;;;10.83;7.87;;;;;;;1.32;78.71;102166.78;5092500;28;20219;-63
2021/04/13 05:10:34;;;;;;;12.17;7.90;;;;;;;1.35;78.91;102166.78;5092811;28;20197;-63
2021/04/13 05:13:01;;;;;;;14.60;8.60;;;;;;;1.36;78.72;102166.78;5089681;28;20226;-64
2021/04/13 05:15:27;;;;;;;11.53;8.07;;;;;;;1.39;78.82;102172.03;5082297;28;20217;-64
2021/04/13 05:17:53;;;;;;;16.13;8.60;;;;;;;1.43;78.75;102172.03;5091744;28;20204;-63
2021/04/13 05:20:20;;;;;;;12.33;8.60;;;;;;;1.46;79.27;102177.25;5085445;28;20235;-64
2021/04/13 05:22:47;;;;;;;12.03;8.37;;;;;;;1.48;79.08;102176.38;5093500;28;20200;-64
2021/04/13 05:25:13;;;;;;;12.70;8.07;;;;;;;1.52;78.68;102177.25;5090040;28;20216;-63
2021/04/13 05:27:39;;;;;;;11.80;8.20;;;;;;;1.56;78.78;102187.75;5093385;28;20211;-62
2021/04/13 05:30:08;;;;;;;13.27;8.13;;;;;;;1.61;79.20;102180.72;5091454;28;20205;-63
2021/04/13 05:32:34;;;;;;;8.73;7.20;;;;;;;1.63;79.36;102183.34;5088896;28;20204;-64
2021/04/13 05:35:00;;;;;;;10.47;7.37;;;;;;;1.67;79.33;102187.72;5090995;28;20281;-64
2021/04/13 05:37:28;;;;;;;11.33;7.43;;;;;;;1.71;79.21;102189.47;5089886;28;20201;-63
2021/04/13 05:39:55;;;;;;;12.13;8.17;;;;;;;1.75;78.72;102191.22;5088983;28;20641;-66
2021/04/13 05:42:25;;;;;;;11.13;7.90;;;;;;;1.81;79.00;102196.44;5081645;28;20204;-68
2021/04/13 05:44:53;;;;;;;10.63;6.90;;;;;;;1.85;78.67;102195.53;5080261;28;20216;-66
2021/04/13 05:47:19;;;;;;;8.70;7.30;;;;;;;1.88;79.16;102192.91;5088347;28;20201;-66
2021/04/13 05:49:45;;;;;;;12.13;6.90;;;;;;;1.92;79.36;102189.41;5079325;28;20669;-68
2021/04/13 05:52:11;;;;;;;10.40;7.37;;;;;;;1.96;78.93;102192.91;5088181;28;20257;-66
2021/04/13 05:54:37;;;;;;;14.40;8.23;;;;;;;2.02;78.46;102206.88;5085430;28;20236;-67
2021/04/13 05:57:05;;;;;;;10.23;7.07;;;;;;;2.08;78.97;102204.25;5087658;28;20284;-67
2021/04/13 05:59:33;;;;;;;15.00;7.60;;;;;;;2.19;78.94;102205.94;5091027;28;20232;-67
2021/04/13 06:01:59;;;;;;;10.47;7.07;;;;;;;2.26;78.98;102210.31;5089541;28;20230;-69
2021/04/13 06:04:25;;;;;;;11.57;7.57;;;;;;;2.32;78.53;102215.53;5088027;28;20220;-67
2021/04/13 06:06:51;;;;;;;12.50;7.33;;;;;;;2.39;79.16;102206.72;5084534;28;20204;-69
2021/04/13 06:09:17;;;;;;;12.50;7.33;;;;;;;2.46;78.48;102212.84;5087833;28;20197;-68
2021/04/13 06:11:44;;;;;;;8.73;7.13;;;;;;;2.53;79.00;102212.78;5084388;28;20235;-68
2021/04/13 06:14:11;;;;;;;12.87;7.60;;;;;;;2.63;79.04;102209.25;5090253;28;20220;-69
2021/04/13 06:16:38;;;;;;;7.70;6.60;;;;;;;2.70;78.33;102205.66;5079132;28;20221;-66
2021/04/13 06:19:06;;;;;;;10.03;6.73;;;;;;;2.75;78.53;102214.41;5087287;28;20259;-66
2021/04/13 06:21:32;;;;;;;13.23;8.37;;;;;;;2.81;77.67;102212.63;5086372;28;20560;-67
2021/04/13 06:23:58;;;;;;;9.23;7.10;;;;;;;2.89;78.23;102216.06;5077461;28;20432;-67
2021/04/13 06:26:24;;;;;;;12.10;6.87;;;;;;;2.98;78.34;102211.63;5075158;28;20209;-65
2021/04/13 06:28:50;;;;;;;12.20;7.73;;;;;;;3.10;77.65;102223.81;5076294;28;20204;-66
2021/04/13 06:31:17;;;;;;;11.23;7.10;;;;;;;3.21;77.59;102224.63;5074964;28;20205;-66
2021/04/13 06:33:43;;;;;;;11.73;7.83;;;;;;;3.30;78.17;102226.31;5075488;28;20731;-67
2021/04/13 06:36:13;;;;;;;12.53;8.43;;;;;;;3.41;77.98;102230.59;5075943;28;20220;-67
2021/04/13 06:38:39;;;;;;;12.37;6.70;;;;;;;3.51;77.74;102231.38;5077913;28;20628;-67
2021/04/13 06:41:27;;;;;;;12.07;6.07;;;;;;;3.61;76.92;102233.03;5076901;28;20204;-66
2021/04/13 06:44:26;;;;;;;8.80;6.57;;;;;;;3.73;77.38;102239.97;5072877;28;20219;-66
2021/04/13 06:47:02;;;;;;;11.07;6.33;;;;;;;3.83;76.64;102233.72;5070523;28;20223;-67
2021/04/13 06:49:43;;;;;;;8.17;5.77;;;;;;;3.90;75.67;102240.66;5074142;28;20243;-66
2021/04/13 06:52:19;;;;;;;10.07;6.60;;;;;;;4.00;76.32;102239.66;5074042;28;20261;-67
2021/04/13 06:54:54;;;;;;;11.43;6.60;;;;;;;4.14;76.67;102235.09;5075892;28;20227;-67
2021/04/13 06:57:39;;;;;;;8.60;6.27;;;;;;;4.32;75.72;102241.94;5077222;28;20196;-66
2021/04/13 07:00:15;;;;;;;9.07;6.27;;;;;;;4.49;75.94;102239.06;5074403;28;20613;-66
2021/04/13 07:02:57;;;;;;;11.47;6.13;;;;;;;4.63;75.70;102245.06;5076280;28;20690;-66
2021/04/13 07:05:29;;;;;;;8.53;5.47;;;;;;;4.74;75.00;102247.56;5072538;28;20216;-67
2021/04/13 07:08:05;;;;;;;8.43;5.33;;;;;;;4.73;73.88;102249.31;5077820;28;20213;-66
2021/04/13 07:10:34;;;;;;;10.77;5.90;;;;;;;4.77;73.78;102247.50;5076635;28;20196;-66
2021/04/13 07:13:06;;;;;;;7.10;4.70;;;;;;;4.79;73.95;102254.53;5073421;28;20205;-66
2021/04/13 07:15:41;;;;;;;7.30;4.53;;;;;;;4.82;72.97;102251.84;5077408;28;20603;-67
2021/04/13 07:18:17;;;;;;;9.37;4.57;;;;;;;4.85;73.34;102257.06;5074604;28;20207;-67
2021/04/13 07:20:49;;;;;;;7.63;4.83;;;;;;;4.94;73.02;102255.19;5079366;28;20720;-66
2021/04/13 07:23:20;;;;;;;6.83;4.57;;;;;;;5.09;73.21;102260.25;5071938;28;20213;-69
2021/04/13 07:25:50;;;;;;;7.13;4.87;;;;;;;5.23;72.95;102264.41;5084372;28;20203;-66
2021/04/13 07:28:23;;;;;;;8.33;4.47;;;;;;;5.34;72.03;102256.34;5072451;28;20689;-66
2021/04/13 07:30:53;;;;;;;7.57;4.70;;;;;;;5.32;71.72;102258.13;5077144;28;20197;-68
2021/04/13 07:33:23;;;;;;;6.80;4.50;;;;;;;5.28;70.70;102267.00;5073148;28;20206;-67
2021/04/13 07:35:50;;;;;;;8.80;4.70;;;;;;;5.26;70.59;102258.22;5077971;28;20203;-67
2021/04/13 07:38:22;;;;;;;8.87;4.37;;;;;;;5.26;70.69;102271.41;5077431;28;20197;-67
2021/04/13 07:40:51;;;;;;;7.80;4.47;;;;;;;5.23;70.18;102272.34;5073216;28;20234;-68
2021/04/13 07:43:23;;;;;;;7.33;4.37;;;;;;;5.28;70.25;102281.97;5072898;28;20267;-67
2021/04/13 07:45:59;;;;;;;9.07;4.33;;;;;;;5.33;70.63;102275.72;5071410;28;20341;-69
2021/04/13 07:48:43;;;;;;;11.00;4.50;;;;;;;5.44;70.89;102278.19;5072182;28;20210;-67
2021/04/13 07:51:16;;;;;;;8.90;4.27;;;;;;;5.52;70.29;102273.66;5071591;28;20193;-69
2021/04/13 07:53:50;;;;;;;7.73;4.80;;;;;;;5.55;70.18;102276.25;5076600;28;20236;-67
2021/04/13 07:56:28;;;;;;;6.00;3.73;;;;;;;5.67;70.53;102269.88;5071985;28;20205;-68
2021/04/13 07:58:58;;;;;;;11.67;4.50;;;;;;;5.80;70.01;102274.03;5078200;28;20216;-66
2021/04/13 08:01:25;;;;;;;11.17;4.50;;;;;;;5.90;69.62;102275.69;5073392;28;20561;-66
2021/04/13 08:03:52;;;;;;;10.17;4.73;;;;;;;6.03;69.26;102277.19;5076026;28;20239;-68
2021/04/13 08:06:59;;;;;;;9.53;3.70;;;;;;;6.18;69.13;102266.31;5073676;28;20462;-67
2021/04/13 08:09:44;;;;;;;6.17;3.80;;;;;;;6.39;69.30;102267.66;5072538;28;20200;-66
2021/04/13 08:12:18;;;;;;;8.40;4.13;;;;;;;6.59;68.98;102261.97;5075713;28;20200;-67
2021/04/13 08:14:47;;;;;;;7.93;3.57;;;;;;;6.72;68.40;102252.84;5071334;28;20231;-67
2021/04/13 08:17:16;;;;;;;5.13;2.87;;;;;;;6.91;67.99;102262.13;5069194;28;20201;-66
2021/04/13 08:19:45;;;;;;;5.27;3.30;;;;;;;7.01;66.32;102257.47;5070169;28;20228;-68
2021/04/13 08:22:14;;;;;;;8.03;3.10;;;;;;;7.05;66.26;102256.50;5069129;28;20209;-67
2021/04/13 08:24:42;;;;;;;7.50;3.07;;;;;;;7.09;65.39;102266.13;5176185;22;20229;-71
2021/04/13 08:27:22;;;;;;;8.40;3.37;;;;;;;7.09;65.18;102262.59;5068160;28;20207;-71
2021/04/13 08:29:54;;;;;;;6.37;3.40;;;;;;;7.08;65.13;102269.69;5064767;28;20209;-71
2021/04/13 08:35:28;;;;;;;10.60;3.17;;;;;;;7.06;64.45;102273.25;5079662;28;20596;-71
2021/04/13 08:38:12;;;;;;;10.67;3.23;;;;;;;7.03;64.28;102270.69;5086809;28;20219;-71
2021/04/13 08:40:58;;;;;;;9.83;3.60;;;;;;;7.01;64.43;102268.06;5087783;28;20212;-70
2021/04/13 08:43:32;;;;;;;7.77;4.80;;;;;;;7.10;65.00;102269.66;5087207;28;20566;-71
2021/04/13 08:46:11;;;;;;;6.80;3.60;;;;;;;7.26;65.49;102265.72;5086535;28;20310;-71
2021/04/13 08:48:39;;;;;;;8.67;3.20;;;;;;;7.40;65.78;102265.38;5088198;28;20619;-71
2021/04/13 08:51:10;;;;;;;6.17;3.10;;;;;;;7.57;65.65;102258.75;5088077;28;20220;-68
2021/04/13 08:53:42;;;;;;;9.90;2.20;;;;;;;7.74;64.75;102260.09;5085936;28;20588;-70
2021/04/13 08:56:12;;;;;;;7.40;2.03;;;;;;;7.77;63.77;102265.34;5092014;28;21219;-69
2021/04/13 08:58:42;;;;;;;4.47;1.23;;;;;;;7.73;62.99;102268.97;5089955;28;20204;-71
2021/04/13 09:01:34;;;;;;;6.47;1.60;;;;;;;7.67;61.24;102262.06;5092562;28;20234;-69
2021/04/13 09:04:02;;;;;;;5.73;1.17;;;;;;;7.65;61.27;102270.06;5085121;28;20224;-69
2021/04/13 09:06:51;;;;;;;5.47;1.50;;;;;;;7.66;61.49;102263.84;5091570;28;20204;-69
2021/04/13 09:09:30;;;;;;;11.47;1.60;;;;;;;7.71;61.37;102270.78;5089264;28;20196;-69
2021/04/13 09:12:05;;;;;;;5.37;1.30;;;;;;;7.71;60.82;102260.19;5089914;28;20681;-69
2021/04/13 09:14:36;;;;;;;5.60;1.93;;;;;;;7.79;60.01;102264.38;5088444;28;20276;-70
2021/04/13 09:17:20;;;;;;;9.90;1.63;;;;;;;7.91;60.11;102261.41;5086803;28;20193;-69
2021/04/13 09:19:53;;;;;;;4.27;1.30;;;;;;;8.02;58.80;102250.53;5086138;28;20230;-69
2021/04/13 09:22:24;;;;;;;7.33;1.47;;;;;;;8.08;58.83;102254.75;5084875;28;20196;-71
2021/04/13 09:25:06;;;;;;;3.43;1.20;;;;;;;8.08;58.15;102255.63;5083969;28;20605;-70
2021/04/13 09:27:40;;;;;;;3.80;0.90;;;;;;;8.10;58.60;102248.50;5088276;28;20242;-71
2021/04/13 09:30:22;;;;;;;6.97;1.20;;;;;;;8.19;57.53;102245.63;5089107;28;20279;-71
2021/04/13 09:32:49;;;;;;;7.83;1.60;;;;;;;8.26;57.71;102244.50;5084056;28;20197;-70
2021/04/13 09:35:30;;;;;;;4.97;1.40;;;;;;;8.37;57.18;102236.28;5088819;28;20780;-70
2021/04/13 09:38:07;;;;;;;4.87;1.00;;;;;;;8.39;55.68;102244.22;5086915;28;20196;-70
2021/04/13 09:40:38;;;;;;;6.50;1.20;;;;;;;8.44;56.27;102240.50;5090755;28;20216;-71
2021/04/13 09:43:18;;;;;;;5.70;2.07;;;;;;;8.58;56.34;102242.75;5086385;28;20627;-69
2021/04/13 09:46:00;;;;;;;3.67;1.13;;;;;;;8.67;55.64;102239.81;5088693;28;20232;-70
2021/04/13 09:48:55;;;;;;;4.17;1.07;;;;;;;8.68;54.45;102247.75;5088008;28;20209;-70
2021/04/13 09:51:25;;;;;;;3.53;1.23;;;;;;;8.65;54.24;102231.88;5087671;28;20204;-71
2021/04/13 09:54:21;;;;;;;8.10;1.73;;;;;;;8.67;55.03;102242.47;5087651;28;20233;-71
2021/04/13 09:57:09;;;;;;;5.47;1.60;;;;;;;8.65;54.44;102239.84;5076269;28;20227;-70
2021/04/13 09:59:53;;;;;;;7.07;1.43;;;;;;;8.66;54.04;102248.69;5089342;28;20261;-70
2021/04/13 10:02:25;;;;;;;5.20;1.40;;;;;;;8.66;54.35;102244.25;5088874;28;20210;-71
2021/04/13 10:04:56;;;;;;;8.67;1.30;;;;;;;8.72;55.41;102234.38;5084673;28;20220;-71
2021/04/13 10:07:29;;;;;;;5.13;1.00;;;;;;;8.84;54.95;102216.25;5090249;28;20201;-71
2021/04/13 10:09:57;;;;;;;2.73;1.00;;;;;;;8.91;54.34;102244.38;5088900;28;20200;-70
2021/04/13 10:12:54;;;;;;;6.30;1.47;;;;;;;8.95;53.27;102234.53;5086413;28;20216;-69
2021/04/13 10:15:45;;;;;;;4.30;0.77;;;;;;;9.00;53.14;102227.28;5086858;28;20255;-69
2021/04/13 10:18:50;;;;;;;5.67;1.20;;;;;;;9.11;52.54;102229.59;5087856;28;20204;-70
2021/04/13 10:21:31;;;;;;;4.87;1.13;;;;;;;9.23;52.82;102231.84;5067230;28;20226;-69
2021/04/13 10:24:41;;;;;;;5.23;1.57;;;;;;;9.36;52.42;102225.22;5087652;28;20204;-70
2021/04/13 10:27:50;;;;;;;10.00;1.70;;;;;;;9.39;52.06;102220.66;5088494;28;20303;-70
2021/04/13 10:31:04;;;;;;;5.87;1.30;;;;;;;9.38;52.14;102232.22;5087332;28;20628;-69
2021/04/13 10:34:09;;;;;;;4.33;1.30;;;;;;;9.33;52.01;102233.28;5084843;28;20208;-69
2021/04/13 10:37:00;;;;;;;4.33;1.00;;;;;;;9.23;51.99;102230.06;5088983;28;20200;-70
2021/04/13 10:39:43;;;;;;;2.97;0.83;;;;;;;9.16;52.17;102223.19;5083817;28;20235;-70
2021/04/13 10:42:46;;;;;;;3.77;0.83;;;;;;;9.19;53.01;102222.25;5087400;28;20200;-70
2021/04/13 10:45:43;;;;;;;3.03;1.10;;;;;;;9.26;52.36;102224.66;5089492;28;20284;-71
2021/04/13 10:48:47;;;;;;;3.67;1.33;;;;;;;9.34;52.57;102217.28;5089355;28;20280;-71
2021/04/13 10:51:54;;;;;;;4.47;1.00;;;;;;;9.36;51.45;102212.78;5088683;28;20204;-70
2021/04/13 10:55:03;;;;;;;2.90;1.00;;;;;;;9.43;51.40;102204.59;5088269;28;20220;-69
2021/04/13 10:58:06;;;;;;;1.90;0.80;;;;;;;9.57;50.32;102203.22;5087888;28;20219;-70
2021/04/13 11:00:38;;;;;;;5.03;1.10;;;;;;;9.71;50.32;102202.72;5087409;28;20215;-70
2021/04/13 11:03:44;;;;;;;3.07;0.90;;;;;;;9.82;49.20;102207.69;5087457;28;20204;-71
2021/04/13 11:06:44;;;;;;;5.47;1.17;;;;;;;9.86;49.06;102199.50;5089300;28;20203;-70
2021/04/13 11:09:50;;;;;;;4.07;0.80;;;;;;;9.84;48.77;102204.06;5084781;28;20204;-70
2021/04/13 11:13:11;;;;;;;2.53;1.00;;;;;;;9.78;48.52;102206.06;5025745;28;20202;-70
2021/04/13 11:15:50;;;;;;;5.23;1.00;;;;;;;9.68;47.68;102198.38;5004323;28;20226;-70
2021/04/13 11:18:48;;;;;;;5.30;1.50;;;;;;;9.58;47.93;102196.09;5073807;28;20196;-70
2021/04/13 11:21:40;;;;;;;4.87;1.30;;;;;;;9.51;48.86;102200.75;5063071;28;20231;-72
2021/04/13 11:24:45;;;;;;;2.47;1.03;;;;;;;9.55;49.14;102188.22;5082124;28;20227;-71
2021/04/13 11:27:44;;;;;;;2.10;0.97;;;;;;;9.68;49.02;102178.88;5085979;28;20253;-70
2021/04/13 11:30:58;;;;;;;4.17;1.17;;;;;;;9.75;49.39;102185.75;5085675;28;20207;-71
2021/04/13 11:33:37;;;;;;;2.97;1.10;;;;;;;9.74;48.68;102181.34;5065523;28;20200;-70
2021/04/13 11:36:12;;;;;;;7.10;1.47;;;;;;;9.79;48.39;102176.72;5085299;28;20572;-71
2021/04/13 11:38:50;;;;;;;3.73;0.87;;;;;;;9.87;48.82;102173.78;5085097;28;20572;-70
2021/04/13 11:41:52;;;;;;;5.63;1.63;;;;;;;9.97;48.94;102170.75;5073434;28;20243;-68
2021/04/13 11:44:30;;;;;;;4.07;1.10;;;;;;;10.08;48.65;102173.88;5084338;28;20224;-71
2021/04/13 11:47:07;;;;;;;4.03;1.47;;;;;;;10.13;47.62;102180.81;5077963;28;20204;-69
2021/04/13 11:49:37;;;;;;;3.70;1.00;;;;;;;10.10;46.86;102179.13;5082292;28;20669;-71
2021/04/13 11:52:10;;;;;;;4.73;1.37;;;;;;;10.10;46.81;102187.13;5082331;28;20201;-70
2021/04/13 11:54:47;;;;;;;4.60;1.00;;;;;;;10.10;47.44;102201.31;5081801;28;20224;-71
2021/04/13 11:57:19;;;;;;;6.73;1.00;;;;;;;10.01;47.33;102208.78;5080127;28;20200;-71
2021/04/13 12:00:19;;;;;;;4.00;1.10;;;;;;;9.74;48.72;102221.25;5077489;28;20228;-70
2021/04/13 12:02:47;;;;;;;3.63;1.17;;;;;;;9.49;50.30;102236.31;5074972;28;20204;-70
2021/04/13 12:05:25;;;;;;;4.67;1.07;;;;;;;9.21;51.76;102242.53;5086176;28;20239;-69
2021/04/13 12:07:51;;;;;;;3.53;1.13;;;;;;;8.98;52.58;102239.72;5077986;28;20212;-70
2021/04/13 12:10:55;;;;;;;3.57;1.50;;;;;;;8.73;52.92;102223.69;5090532;28;20234;-70
2021/04/13 12:13:43;;;;;;;3.63;1.20;;;;;;;8.58;54.86;102224.16;5075636;28;20204;-73